Pagrindinis puslapis
METAR-TAF:

METAR-TAF

Oro uostai :

Valensija, Venesuela

platuma: 10-10N, ilguma: 067-56W, Aukštis: 430 m

Dabartinis oras

Ataskaita buvo paskelbta 35 minutes, ne 15:02 UTC
Ramus vėjas
Temperatūra
Slėgis

METAR: SVVA 291502Z AUTO 00000KT NCD 0/// Q////

Laikas: 11:37 (15:37 UTC)

Prognozė

Ataskaita buvo paskelbta 5 valandos ir 7 minutes, ne 10:30 UTC
Prognozė galioja nuo 29 metu 12 UTC su 30 metu 12 UTC
Vėjas 2 kt iš Rytų
Matomumas 10 km arba daugiau
Mažai debesys ne aukštis 1600 ft
Laikinai
nuo 29 metu 16 UTC su 29 metu 20 UTC
Vėjas 3 kt iš Pietų
Matomumas 10 km arba daugiau
Išsisklaidę debesys ne aukštis 1600 ft
Laikinai
nuo 30 metu 00 UTC su 30 metu 04 UTC
Vėjas 5 kt iš Vakarų/Pietvakarių
Matomumas 10 km arba daugiau
Išsisklaidę debesys ne aukštis 1600 ft

TAF: SVVA 291030Z 2912/3012 09002KT 9999 FEW016 TX33/2919 TN22/3011 TEMPO 2916/2920 18003KT 9999 SCT016 TEMPO 3000/3004 25005KT 9999 SCT016

Orai ataskaitas ir orų prognozės (METAR, TAF).

turimą stotys yra geltonos ir raudonos taškus žemėlapyje.

Perkelti pele per norėdami pamatyti stoties vardą.

Tada spustelėkite, norėdami matyti oro stebėjimo ir prognozės.

Norėdami pakeisti žemėlapį: spustelėkite ant žalios mygtukų su juodo kryžiaus žemyn,; žalią mygtuką su brūkšneliu, jei norite nutolinti; arba žalių rodyklių gretimoms žemėlapius.


METAR-TAF: